PAUN/UNK METAR and TAF weather

Enter ICAO airport designator
Station Type Date Time Source
PAUN METAR 2020/09/22 02:56 UTC NOAA

PAUN 220256Z AUTO 01010KT 10SM CLR 11/02 A2964 RMK AO2 SLP042 6//// T01060017 55003 PNO $


Station Type Date Time Source
PAUN Decoded METAR 2020/09/22 02:56 UTC NOAA

Unalakleet, AK, United States (PAUN) 63-53N 160-48W 6M
Sep 21, 2020 - 10:56 PM EDT / 2020.09.22 0256 UTC
Wind: from the N (010 degrees) at 12 MPH (10 KT):0
Visibility: 10 mile(s):0
Sky conditions: clear
Temperature: 51.1 F (10.6 C)
Dew Point: 35.1 F (1.7 C)
Relative Humidity: 54%
Pressure (altimeter): 29.64 in. Hg (1003 hPa)
Pressure tendency: 0.01 inches (0.3 hPa) lower than three hours ago
ob: PAUN 220256Z AUTO 01010KT 10SM CLR 11/02 A2964 RMK AO2 SLP042 6//// T01060017 55003 PNO
cycle: 3

Station Type Date Time Source
PAUN TAF 2020/09/21 23:54 UTC NOAA

TAF
AMD PAUN 212253Z 2123/2218 29010KT P6SM SKC
FM220600 01007KT P6SM SCT050
FM221600 33010G15KT P6SM OVC050

Example: see airport list